Billinghay, United Kingdom
Current Conditions -  °F | °C
As of 12:58 PM on Thursday 27 Nov 2014 (Local Time) from EGXC Reporting Station
Drizzle Drizzle  
Wind Chill: 52°   Ceiling: 100
Heat Index: 52°   Visibility: 0.68mi
Dew Point: 50°   Wind: 8mph
Humidity: 94%   Direction: 170°S
Pressure: 29.56"   Gusts: NA
Location:  53.08°N, 0.28°W
Report Text: EGXC 271258Z 17007KT 1100 -DZ BKN001 OVC002 11/10 Q1001 RED TEMPO 2000 BKN002 AMB
Loading
Personal Weather Stations






























Interactive Weather Map New forecast layout! Learn more

10-Day Weather Forecast

Advertisements
Track Severe Weather on mobile